AirNav   Pilot Hours Calculator
 
 1459 users online  

NC43 Bear Pen Airport
Supply, North Carolina, USA

GOING TO SUPPLY?


FAA INFORMATION EFFECTIVE 02 DECEMBER 2021

Location

FAA Identifier: NC43
Lat/Long: 34-07-30.6120N 078-20-17.0090W
34-07.510200N 078-20.283483W
34.1251700,-78.3380581
(estimated)
Elevation: 63 ft. / 19.2 m (surveyed)
Variation: 07W (1985)
From city: 8 miles NW of SUPPLY, NC
Time zone: UTC -5 (UTC -4 during Daylight Saving Time)
Zip code: 28462

Airport Operations

Airport use: Private use. Permission required prior to landing
Control tower: no
ARTCC: WASHINGTON CENTER
FSS: RALEIGH FLIGHT SERVICE STATION
Attendance: IREG
Wind indicator: yes
Segmented circle: no

Airport Communications

WX AWOS-3P at SUT (18 nm SE): 124.175 (910-457-1710)

Nearby radio navigation aids

VOR radial/distance  VOR name  Freq  Var
ILMr246/26.7WILMINGTON VORTAC117.0007W
CREr049/26.8GRAND STRAND VORTAC114.4003W

 
NDB name  Hdg/Dist  Freq  Var  ID
CAMP123/20.622707WCPC -.-. .--. -.-.

Airport Services

Airframe service: NONE
Powerplant service: NONE

Runway Information

Runway 6/24

Dimensions: 6000 x 150 ft. / 1829 x 46 m
Surface: turf
RUNWAY 6  RUNWAY 24
Traffic pattern: leftleft

Runway 18/36

Dimensions: 6000 x 200 ft. / 1829 x 61 m
Surface: turf
RUNWAY 18  RUNWAY 36
Traffic pattern: leftleft

Airport Ownership and Management from official FAA records

Ownership: Publicly-owned
Owner: RESOURCE MANAGEMENT SERVICE, LLC
2704-C EXCHANGE DRIVE
WILMINGTON, NC 28405
Manager: ROBERT EVANS
2704-C EXCHANGE DRIVE
WHITEVILLE, NC 28405
Phone 910-777-4931

Additional Remarks

FACILITY USED BY NC FOREST SVC FOR FIRE CONTROL.
NOT MAINTAINED DURING OFF SEASON; USE NOT RECOMMENDED DURING FIRE SEASON.
FOR CD CTC WASHINGTON ARTCC AT 703-771-3587.

Instrument Procedures

There are no published instrument procedures at NC43.

Some nearby airports with instrument procedures:

KSUT - Cape Fear Regional Jetport/Howie Franklin Field Airport (18 nm SE)
KCPC - Columbus County Municipal Airport (21 nm NW)
KILM - Wilmington International Airport (23 nm E)
5J9 - Twin City Airport (26 nm W)
KCRE - Grand Strand Airport (27 nm SW)
 
Loc | Ops | Rwys | IFR | FBO | Links
Com | Nav | Svcs | Stats | Notes
Area around NC43 (Bear Pen Airport)
 
Road maps at: MapQuest Bing Google
 
Aerial photo
No photo
 
Sectional chart

 
Airport distance calculator
Flying to Bear Pen Airport? Find the distance to fly.

From to NC43

Sunrise and sunset
Times for 06-Dec-2021
 Local
(UTC-5)
 Zulu
(UTC)
Morning civil twilight06:3911:39
Sunrise07:0612:06
Sunset17:0322:03
Evening civil twilight17:3022:30

Current date and time
Zulu (UTC)  06-Dec-2021 20:28:11
Local (UTC-5)  06-Dec-2021 15:28:11
 
METAR
KSUT 
17nm SE 
062015Z AUTO 21005KT 10SM CLR 19/14 A2999 RMK AO2 T01850136
KCPC 
21nm NW 
062015Z AUTO 22009KT 10SM CLR 23/12 A2996 RMK AO2 T02300121
KILM 
23nm E 
061953Z 23009KT 10SM FEW040 24/14 A2996 RMK AO2 SLP144 T02440139
KCRE 
26nm SW 
061953Z 20010KT 10SM CLR 19/14 A2997 RMK AO1 SLP151 T01940144
KEYF 
31nm NW 
062015Z AUTO 22012G17KT 10SM CLR 24/12 A2993 RMK AO2 T02360120
TAF
KILM 
23nm E 
061720Z 0618/0718 23012KT P6SM FEW030 SCT250 FM062300 21008KT P6SM SCT035 SCT150 FM070700 01007KT P6SM BKN050 FM071300 04010KT P6SM BKN025
KCRE 
26nm SW 
061720Z 0618/0718 20009KT P6SM FEW030 SCT250 FM062200 22008KT P6SM SCT035 SCT250 FM070800 36009KT P6SM BKN050 FM071400 03010KT P6SM BKN025
NOTAMs
Click for the latest NOTAMs
NOTAMs are issued by the DoD/FAA and will open in a separate window not controlled by AirNav.

 

 
 

Would you like to see your business listed on this page?

 If your business provides an interesting product or service to pilots, flight crews, aircraft, or users of the Bear Pen Airport, you should consider listing it here.  To start the listing process, click on the button below
 
Add a business
 

Other Pages about Bear Pen Airport

Update a link
 
Copyright © AirNav, LLC. All rights reserved. Privacy Policy  Contact